Baltimore, Maryland
Traffic Map
Current Weather Conditions
Baltimore, Maryland
Broken Clouds
Broken Clouds
85°
Feels Like: 89°
Wind Chill: 85° Ceiling: 25000
Heat Index: 89° Visibility: 10mi
Dew Point: 70° Wind: 5mph
Humidity: 61% Direction: 180° (S)
Pressure: 30in Gusts: 0mph
Raw Report DataKBWI 211754Z 18004KT 10SM SCT031TCU SCT160 BKN250 29/21 A3000 RMK AO2 SLP158 TCU ALQDS 60000 T02940211 10300 20211 58012
Traffic Incident Summary
Active as of:
Severity:
Category:
InformationThere was an issue retrieving the traffic information for this location. Please try a different location or try again shortly.
Advertisements
Track Severe Weather on mobile